sensor_id;sensor_type;location;lat;lon;timestamp;P1;durP1;ratioP1;P2;durP2;ratioP2
253;SDS011;590;48.772;8.846;2023-09-30T00:02:25;3.80;;;3.00;;
253;SDS011;590;48.772;8.846;2023-09-30T00:04:54;2.50;;;2.30;;
253;SDS011;590;48.772;8.846;2023-09-30T00:07:22;3.60;;;2.80;;
253;SDS011;590;48.772;8.846;2023-09-30T00:09:50;3.60;;;2.43;;
253;SDS011;590;48.772;8.846;2023-09-30T00:12:18;4.17;;;2.70;;
253;SDS011;590;48.772;8.846;2023-09-30T00:14:46;3.40;;;2.83;;
253;SDS011;590;48.772;8.846;2023-09-30T00:17:14;3.60;;;2.97;;
253;SDS011;590;48.772;8.846;2023-09-30T00:19:43;8.30;;;3.13;;
253;SDS011;590;48.772;8.846;2023-09-30T00:22:12;2.97;;;2.70;;
253;SDS011;590;48.772;8.846;2023-09-30T00:24:40;3.63;;;2.63;;
253;SDS011;590;48.772;8.846;2023-09-30T00:27:08;3.53;;;2.90;;
253;SDS011;590;48.772;8.846;2023-09-30T00:29:36;3.33;;;3.07;;
253;SDS011;590;48.772;8.846;2023-09-30T00:32:04;4.73;;;3.20;;
253;SDS011;590;48.772;8.846;2023-09-30T00:34:32;3.60;;;2.80;;
253;SDS011;590;48.772;8.846;2023-09-30T00:37:02;2.90;;;2.30;;
253;SDS011;590;48.772;8.846;2023-09-30T00:39:31;4.30;;;3.00;;
253;SDS011;590;48.772;8.846;2023-09-30T00:42:00;3.63;;;2.53;;
253;SDS011;590;48.772;8.846;2023-09-30T00:44:30;2.70;;;2.40;;
253;SDS011;590;48.772;8.846;2023-09-30T00:46:58;2.77;;;2.57;;
253;SDS011;590;48.772;8.846;2023-09-30T00:49:27;3.50;;;3.13;;
253;SDS011;590;48.772;8.846;2023-09-30T00:51:56;2.90;;;2.23;;
253;SDS011;590;48.772;8.846;2023-09-30T00:54:26;2.70;;;2.20;;
253;SDS011;590;48.772;8.846;2023-09-30T00:56:54;4.23;;;3.10;;
253;SDS011;590;48.772;8.846;2023-09-30T00:59:23;2.40;;;2.20;;
253;SDS011;590;48.772;8.846;2023-09-30T01:01:52;5.03;;;2.70;;
253;SDS011;590;48.772;8.846;2023-09-30T01:04:23;3.73;;;2.57;;
253;SDS011;590;48.772;8.846;2023-09-30T01:06:54;2.83;;;2.60;;
253;SDS011;590;48.772;8.846;2023-09-30T01:09:23;3.50;;;3.30;;
253;SDS011;590;48.772;8.846;2023-09-30T01:11:53;3.70;;;2.80;;
253;SDS011;590;48.772;8.846;2023-09-30T01:14:24;3.20;;;2.80;;
253;SDS011;590;48.772;8.846;2023-09-30T01:16:54;2.80;;;2.67;;
253;SDS011;590;48.772;8.846;2023-09-30T01:19:22;3.50;;;2.67;;
253;SDS011;590;48.772;8.846;2023-09-30T01:21:53;3.13;;;3.00;;
253;SDS011;590;48.772;8.846;2023-09-30T01:24:25;4.00;;;3.73;;
253;SDS011;590;48.772;8.846;2023-09-30T01:26:53;4.50;;;3.03;;
253;SDS011;590;48.772;8.846;2023-09-30T01:29:22;3.83;;;3.17;;
253;SDS011;590;48.772;8.846;2023-09-30T01:31:52;4.33;;;3.10;;
253;SDS011;590;48.772;8.846;2023-09-30T01:34:20;3.40;;;3.20;;
253;SDS011;590;48.772;8.846;2023-09-30T01:36:48;3.17;;;2.97;;
253;SDS011;590;48.772;8.846;2023-09-30T01:39:17;4.60;;;3.20;;
253;SDS011;590;48.772;8.846;2023-09-30T01:41:46;4.17;;;3.10;;
253;SDS011;590;48.772;8.846;2023-09-30T01:44:14;3.90;;;2.73;;
253;SDS011;590;48.772;8.846;2023-09-30T01:46:42;3.17;;;3.00;;
253;SDS011;590;48.772;8.846;2023-09-30T01:49:10;4.00;;;3.57;;
253;SDS011;590;48.772;8.846;2023-09-30T01:51:38;3.77;;;3.23;;
253;SDS011;590;48.772;8.846;2023-09-30T01:54:06;4.63;;;3.47;;
253;SDS011;590;48.772;8.846;2023-09-30T01:56:36;2.70;;;2.50;;
253;SDS011;590;48.772;8.846;2023-09-30T01:59:04;3.20;;;2.90;;
253;SDS011;590;48.772;8.846;2023-09-30T02:01:32;3.70;;;3.03;;
253;SDS011;590;48.772;8.846;2023-09-30T02:04:00;4.00;;;3.07;;
253;SDS011;590;48.772;8.846;2023-09-30T02:06:28;3.53;;;3.33;;
253;SDS011;590;48.772;8.846;2023-09-30T02:08:56;3.30;;;3.00;;
253;SDS011;590;48.772;8.846;2023-09-30T02:11:24;4.07;;;3.70;;
253;SDS011;590;48.772;8.846;2023-09-30T02:13:54;4.40;;;3.73;;
253;SDS011;590;48.772;8.846;2023-09-30T02:16:22;4.10;;;3.37;;
253;SDS011;590;48.772;8.846;2023-09-30T02:18:51;3.63;;;3.43;;
253;SDS011;590;48.772;8.846;2023-09-30T02:21:19;4.83;;;3.73;;
253;SDS011;590;48.772;8.846;2023-09-30T02:23:48;3.57;;;3.27;;
253;SDS011;590;48.772;8.846;2023-09-30T02:26:22;3.37;;;3.20;;
253;SDS011;590;48.772;8.846;2023-09-30T02:28:52;3.87;;;3.70;;
253;SDS011;590;48.772;8.846;2023-09-30T02:31:20;3.70;;;3.40;;
253;SDS011;590;48.772;8.846;2023-09-30T02:33:48;3.67;;;3.50;;
253;SDS011;590;48.772;8.846;2023-09-30T02:36:19;3.80;;;3.60;;
253;SDS011;590;48.772;8.846;2023-09-30T02:38:47;4.03;;;2.80;;
253;SDS011;590;48.772;8.846;2023-09-30T02:41:15;3.73;;;3.30;;
253;SDS011;590;48.772;8.846;2023-09-30T02:43:44;2.90;;;2.70;;
253;SDS011;590;48.772;8.846;2023-09-30T02:46:14;4.63;;;2.97;;
253;SDS011;590;48.772;8.846;2023-09-30T02:48:42;3.30;;;3.00;;
253;SDS011;590;48.772;8.846;2023-09-30T02:51:10;2.80;;;2.60;;
253;SDS011;590;48.772;8.846;2023-09-30T02:53:39;2.97;;;2.77;;
253;SDS011;590;48.772;8.846;2023-09-30T02:56:07;3.17;;;2.80;;
253;SDS011;590;48.772;8.846;2023-09-30T02:58:35;3.37;;;3.03;;
253;SDS011;590;48.772;8.846;2023-09-30T03:01:04;3.20;;;3.00;;
253;SDS011;590;48.772;8.846;2023-09-30T03:03:34;3.67;;;3.07;;
253;SDS011;590;48.772;8.846;2023-09-30T03:06:03;3.00;;;2.80;;
253;SDS011;590;48.772;8.846;2023-09-30T03:08:32;2.73;;;2.53;;
253;SDS011;590;48.772;8.846;2023-09-30T03:11:01;2.60;;;2.40;;
253;SDS011;590;48.772;8.846;2023-09-30T03:13:30;3.47;;;3.00;;
253;SDS011;590;48.772;8.846;2023-09-30T03:15:58;3.27;;;2.70;;
253;SDS011;590;48.772;8.846;2023-09-30T03:18:28;3.53;;;3.07;;
253;SDS011;590;48.772;8.846;2023-09-30T03:21:00;3.30;;;2.37;;
253;SDS011;590;48.772;8.846;2023-09-30T03:23:34;2.80;;;2.60;;
253;SDS011;590;48.772;8.846;2023-09-30T03:26:06;2.70;;;2.50;;
253;SDS011;590;48.772;8.846;2023-09-30T03:28:36;2.90;;;2.70;;
253;SDS011;590;48.772;8.846;2023-09-30T03:31:05;3.97;;;3.13;;
253;SDS011;590;48.772;8.846;2023-09-30T03:33:34;2.93;;;2.60;;
253;SDS011;590;48.772;8.846;2023-09-30T03:36:04;3.33;;;3.13;;
253;SDS011;590;48.772;8.846;2023-09-30T03:38:35;5.03;;;3.67;;
253;SDS011;590;48.772;8.846;2023-09-30T03:41:03;5.97;;;3.20;;
253;SDS011;590;48.772;8.846;2023-09-30T03:43:35;3.20;;;3.00;;
253;SDS011;590;48.772;8.846;2023-09-30T03:46:07;4.10;;;3.00;;
253;SDS011;590;48.772;8.846;2023-09-30T03:48:35;3.20;;;3.00;;
253;SDS011;590;48.772;8.846;2023-09-30T03:51:10;2.87;;;2.67;;
253;SDS011;590;48.772;8.846;2023-09-30T03:53:40;2.87;;;2.67;;
253;SDS011;590;48.772;8.846;2023-09-30T03:56:09;3.23;;;2.67;;
253;SDS011;590;48.772;8.846;2023-09-30T03:58:38;3.37;;;2.80;;
253;SDS011;590;48.772;8.846;2023-09-30T04:01:06;3.10;;;2.90;;
253;SDS011;590;48.772;8.846;2023-09-30T04:03:37;3.40;;;2.70;;
253;SDS011;590;48.772;8.846;2023-09-30T04:06:06;3.33;;;3.00;;
253;SDS011;590;48.772;8.846;2023-09-30T04:08:35;4.90;;;2.90;;
253;SDS011;590;48.772;8.846;2023-09-30T04:11:04;2.93;;;2.73;;
253;SDS011;590;48.772;8.846;2023-09-30T04:13:32;4.40;;;3.03;;
253;SDS011;590;48.772;8.846;2023-09-30T04:16:02;2.97;;;2.77;;
253;SDS011;590;48.772;8.846;2023-09-30T04:18:30;3.57;;;2.43;;
253;SDS011;590;48.772;8.846;2023-09-30T04:20:58;3.07;;;2.60;;
253;SDS011;590;48.772;8.846;2023-09-30T04:23:26;4.40;;;3.13;;
253;SDS011;590;48.772;8.846;2023-09-30T04:25:56;4.30;;;3.43;;
253;SDS011;590;48.772;8.846;2023-09-30T04:28:24;3.90;;;3.47;;
253;SDS011;590;48.772;8.846;2023-09-30T04:30:52;3.83;;;3.10;;
253;SDS011;590;48.772;8.846;2023-09-30T04:33:20;4.80;;;3.23;;
253;SDS011;590;48.772;8.846;2023-09-30T04:35:51;3.53;;;3.37;;
253;SDS011;590;48.772;8.846;2023-09-30T04:38:19;3.27;;;3.10;;
253;SDS011;590;48.772;8.846;2023-09-30T04:40:47;4.40;;;3.10;;
253;SDS011;590;48.772;8.846;2023-09-30T04:43:19;3.43;;;3.23;;
253;SDS011;590;48.772;8.846;2023-09-30T04:45:47;3.30;;;2.80;;
253;SDS011;590;48.772;8.846;2023-09-30T04:48:19;4.90;;;3.47;;
253;SDS011;590;48.772;8.846;2023-09-30T04:50:48;3.30;;;3.03;;
253;SDS011;590;48.772;8.846;2023-09-30T04:53:17;3.20;;;3.00;;
253;SDS011;590;48.772;8.846;2023-09-30T04:55:46;4.60;;;3.50;;
253;SDS011;590;48.772;8.846;2023-09-30T04:58:15;4.17;;;3.90;;
253;SDS011;590;48.772;8.846;2023-09-30T05:00:45;5.00;;;4.20;;
253;SDS011;590;48.772;8.846;2023-09-30T05:03:13;5.03;;;3.97;;
253;SDS011;590;48.772;8.846;2023-09-30T05:05:41;3.80;;;3.53;;
253;SDS011;590;48.772;8.846;2023-09-30T05:08:09;3.10;;;2.90;;
253;SDS011;590;48.772;8.846;2023-09-30T05:10:40;4.43;;;3.00;;
253;SDS011;590;48.772;8.846;2023-09-30T05:13:08;3.57;;;3.37;;
253;SDS011;590;48.772;8.846;2023-09-30T05:15:36;6.73;;;3.80;;
253;SDS011;590;48.772;8.846;2023-09-30T05:18:06;3.70;;;3.50;;
253;SDS011;590;48.772;8.846;2023-09-30T05:20:36;3.67;;;3.40;;
253;SDS011;590;48.772;8.846;2023-09-30T05:23:05;3.03;;;2.83;;
253;SDS011;590;48.772;8.846;2023-09-30T05:25:34;4.73;;;3.47;;
253;SDS011;590;48.772;8.846;2023-09-30T05:28:03;3.53;;;3.33;;
253;SDS011;590;48.772;8.846;2023-09-30T05:30:32;4.30;;;3.53;;
253;SDS011;590;48.772;8.846;2023-09-30T05:33:00;3.50;;;3.30;;
253;SDS011;590;48.772;8.846;2023-09-30T05:35:31;3.83;;;3.60;;
253;SDS011;590;48.772;8.846;2023-09-30T05:38:00;4.00;;;3.80;;
253;SDS011;590;48.772;8.846;2023-09-30T05:40:30;3.63;;;3.43;;
253;SDS011;590;48.772;8.846;2023-09-30T05:42:58;5.47;;;4.20;;
253;SDS011;590;48.772;8.846;2023-09-30T05:45:27;4.00;;;3.80;;
253;SDS011;590;48.772;8.846;2023-09-30T05:48:01;4.60;;;3.93;;
253;SDS011;590;48.772;8.846;2023-09-30T05:50:34;4.27;;;3.77;;
253;SDS011;590;48.772;8.846;2023-09-30T05:53:03;7.13;;;4.30;;
253;SDS011;590;48.772;8.846;2023-09-30T05:55:32;4.63;;;4.17;;
253;SDS011;590;48.772;8.846;2023-09-30T05:58:00;5.53;;;3.50;;
253;SDS011;590;48.772;8.846;2023-09-30T06:00:28;3.57;;;3.37;;
253;SDS011;590;48.772;8.846;2023-09-30T06:02:58;3.67;;;3.50;;
253;SDS011;590;48.772;8.846;2023-09-30T06:05:27;5.77;;;4.33;;
253;SDS011;590;48.772;8.846;2023-09-30T06:07:59;3.33;;;3.13;;
253;SDS011;590;48.772;8.846;2023-09-30T06:10:29;4.23;;;3.47;;
253;SDS011;590;48.772;8.846;2023-09-30T06:12:57;3.50;;;3.23;;
253;SDS011;590;48.772;8.846;2023-09-30T06:15:26;4.30;;;3.87;;
253;SDS011;590;48.772;8.846;2023-09-30T06:17:55;3.63;;;3.50;;
253;SDS011;590;48.772;8.846;2023-09-30T06:20:24;4.77;;;3.80;;
253;SDS011;590;48.772;8.846;2023-09-30T06:22:54;3.77;;;3.60;;
253;SDS011;590;48.772;8.846;2023-09-30T06:25:24;3.50;;;3.00;;
253;SDS011;590;48.772;8.846;2023-09-30T06:27:54;3.97;;;3.37;;
253;SDS011;590;48.772;8.846;2023-09-30T06:30:22;3.70;;;3.47;;
253;SDS011;590;48.772;8.846;2023-09-30T06:32:57;4.90;;;4.27;;
253;SDS011;590;48.772;8.846;2023-09-30T06:35:27;4.20;;;3.17;;
253;SDS011;590;48.772;8.846;2023-09-30T06:37:57;4.90;;;4.50;;
253;SDS011;590;48.772;8.846;2023-09-30T06:40:27;4.23;;;3.97;;
253;SDS011;590;48.772;8.846;2023-09-30T06:42:55;3.63;;;3.43;;
253;SDS011;590;48.772;8.846;2023-09-30T06:45:24;4.97;;;4.47;;
253;SDS011;590;48.772;8.846;2023-09-30T06:47:52;5.37;;;3.80;;
253;SDS011;590;48.772;8.846;2023-09-30T06:50:21;4.40;;;3.60;;
253;SDS011;590;48.772;8.846;2023-09-30T06:52:50;6.10;;;4.20;;
253;SDS011;590;48.772;8.846;2023-09-30T06:55:18;4.27;;;3.87;;
253;SDS011;590;48.772;8.846;2023-09-30T06:57:47;4.70;;;3.97;;
253;SDS011;590;48.772;8.846;2023-09-30T07:00:16;4.80;;;4.23;;
253;SDS011;590;48.772;8.846;2023-09-30T07:02:44;6.57;;;4.60;;
253;SDS011;590;48.772;8.846;2023-09-30T07:05:13;4.93;;;4.63;;
253;SDS011;590;48.772;8.846;2023-09-30T07:07:42;5.57;;;4.77;;
253;SDS011;590;48.772;8.846;2023-09-30T07:10:11;5.17;;;4.93;;
253;SDS011;590;48.772;8.846;2023-09-30T07:12:40;5.13;;;4.47;;
253;SDS011;590;48.772;8.846;2023-09-30T07:15:11;5.23;;;4.60;;
253;SDS011;590;48.772;8.846;2023-09-30T07:17:40;5.00;;;4.40;;
253;SDS011;590;48.772;8.846;2023-09-30T07:20:11;7.30;;;4.77;;
253;SDS011;590;48.772;8.846;2023-09-30T07:22:39;5.83;;;5.40;;
253;SDS011;590;48.772;8.846;2023-09-30T07:25:28;6.40;;;4.90;;
253;SDS011;590;48.772;8.846;2023-09-30T07:27:58;5.80;;;4.97;;
253;SDS011;590;48.772;8.846;2023-09-30T07:30:27;5.30;;;5.00;;
253;SDS011;590;48.772;8.846;2023-09-30T07:32:56;5.40;;;4.97;;
253;SDS011;590;48.772;8.846;2023-09-30T07:35:24;4.33;;;3.80;;
253;SDS011;590;48.772;8.846;2023-09-30T07:37:52;6.60;;;5.10;;
253;SDS011;590;48.772;8.846;2023-09-30T07:40:20;4.73;;;4.43;;
253;SDS011;590;48.772;8.846;2023-09-30T07:42:48;8.10;;;5.17;;
253;SDS011;590;48.772;8.846;2023-09-30T07:45:18;4.93;;;4.63;;
253;SDS011;590;48.772;8.846;2023-09-30T07:47:49;4.80;;;4.50;;
253;SDS011;590;48.772;8.846;2023-09-30T07:50:17;5.13;;;4.83;;
253;SDS011;590;48.772;8.846;2023-09-30T07:52:46;4.50;;;4.20;;
253;SDS011;590;48.772;8.846;2023-09-30T07:55:14;5.73;;;5.43;;
253;SDS011;590;48.772;8.846;2023-09-30T07:57:42;5.23;;;4.90;;
253;SDS011;590;48.772;8.846;2023-09-30T08:00:13;6.80;;;5.10;;
253;SDS011;590;48.772;8.846;2023-09-30T08:02:42;5.90;;;5.60;;
253;SDS011;590;48.772;8.846;2023-09-30T08:05:12;10.20;;;6.00;;
253;SDS011;590;48.772;8.846;2023-09-30T08:07:41;5.87;;;4.80;;
253;SDS011;590;48.772;8.846;2023-09-30T08:10:09;7.70;;;5.73;;
253;SDS011;590;48.772;8.846;2023-09-30T08:12:40;5.70;;;5.40;;
253;SDS011;590;48.772;8.846;2023-09-30T08:15:12;5.83;;;5.53;;
253;SDS011;590;48.772;8.846;2023-09-30T08:17:40;5.67;;;5.37;;
253;SDS011;590;48.772;8.846;2023-09-30T08:20:09;5.80;;;4.70;;
253;SDS011;590;48.772;8.846;2023-09-30T08:22:39;5.10;;;4.87;;
253;SDS011;590;48.772;8.846;2023-09-30T08:25:07;8.67;;;4.90;;
253;SDS011;590;48.772;8.846;2023-09-30T08:27:36;6.13;;;5.10;;
253;SDS011;590;48.772;8.846;2023-09-30T08:30:05;6.80;;;5.00;;
253;SDS011;590;48.772;8.846;2023-09-30T08:32:35;6.90;;;4.47;;
253;SDS011;590;48.772;8.846;2023-09-30T08:35:03;6.37;;;4.60;;
253;SDS011;590;48.772;8.846;2023-09-30T08:37:33;4.93;;;4.27;;
253;SDS011;590;48.772;8.846;2023-09-30T08:40:03;5.13;;;4.33;;
253;SDS011;590;48.772;8.846;2023-09-30T08:42:32;4.37;;;4.07;;
253;SDS011;590;48.772;8.846;2023-09-30T08:45:01;4.33;;;3.67;;
253;SDS011;590;48.772;8.846;2023-09-30T08:47:32;3.47;;;3.27;;
253;SDS011;590;48.772;8.846;2023-09-30T08:50:01;4.97;;;4.13;;
253;SDS011;590;48.772;8.846;2023-09-30T08:52:33;5.10;;;4.40;;
253;SDS011;590;48.772;8.846;2023-09-30T08:55:08;6.40;;;4.60;;
253;SDS011;590;48.772;8.846;2023-09-30T08:57:36;4.37;;;4.10;;
253;SDS011;590;48.772;8.846;2023-09-30T09:00:07;5.17;;;3.10;;
253;SDS011;590;48.772;8.846;2023-09-30T09:02:39;4.63;;;3.90;;
253;SDS011;590;48.772;8.846;2023-09-30T09:05:09;5.43;;;4.17;;
253;SDS011;590;48.772;8.846;2023-09-30T09:07:38;4.70;;;3.60;;
253;SDS011;590;48.772;8.846;2023-09-30T09:10:08;3.40;;;3.20;;
253;SDS011;590;48.772;8.846;2023-09-30T09:12:39;4.57;;;4.27;;
253;SDS011;590;48.772;8.846;2023-09-30T09:15:20;5.83;;;4.50;;
253;SDS011;590;48.772;8.846;2023-09-30T09:17:51;4.57;;;3.60;;
253;SDS011;590;48.772;8.846;2023-09-30T09:20:20;5.87;;;4.30;;
253;SDS011;590;48.772;8.846;2023-09-30T09:22:49;3.50;;;3.30;;
253;SDS011;590;48.772;8.846;2023-09-30T09:25:22;3.57;;;3.40;;
253;SDS011;590;48.772;8.846;2023-09-30T09:27:50;5.60;;;3.77;;
253;SDS011;590;48.772;8.846;2023-09-30T09:30:21;4.43;;;4.03;;
253;SDS011;590;48.772;8.846;2023-09-30T09:33:00;3.53;;;3.37;;
253;SDS011;590;48.772;8.846;2023-09-30T09:35:29;4.37;;;3.57;;
253;SDS011;590;48.772;8.846;2023-09-30T09:37:59;3.77;;;3.57;;
253;SDS011;590;48.772;8.846;2023-09-30T09:40:31;3.10;;;2.90;;
253;SDS011;590;48.772;8.846;2023-09-30T09:43:00;3.50;;;3.30;;
253;SDS011;590;48.772;8.846;2023-09-30T09:45:32;3.50;;;3.30;;
253;SDS011;590;48.772;8.846;2023-09-30T09:48:01;5.33;;;3.80;;
253;SDS011;590;48.772;8.846;2023-09-30T09:50:32;4.03;;;3.83;;
253;SDS011;590;48.772;8.846;2023-09-30T09:53:02;4.33;;;3.63;;
253;SDS011;590;48.772;8.846;2023-09-30T09:55:34;6.10;;;4.07;;
253;SDS011;590;48.772;8.846;2023-09-30T09:58:05;3.87;;;3.20;;
253;SDS011;590;48.772;8.846;2023-09-30T10:00:36;4.83;;;4.33;;
253;SDS011;590;48.772;8.846;2023-09-30T10:03:06;3.50;;;3.30;;
253;SDS011;590;48.772;8.846;2023-09-30T10:05:34;3.50;;;3.30;;
253;SDS011;590;48.772;8.846;2023-09-30T10:08:03;6.03;;;4.03;;
253;SDS011;590;48.772;8.846;2023-09-30T10:10:36;4.03;;;3.80;;
253;SDS011;590;48.772;8.846;2023-09-30T10:13:05;4.80;;;4.00;;
253;SDS011;590;48.772;8.846;2023-09-30T10:15:37;3.93;;;3.73;;
253;SDS011;590;48.772;8.846;2023-09-30T10:18:08;5.80;;;4.37;;
253;SDS011;590;48.772;8.846;2023-09-30T10:20:41;4.70;;;3.73;;
253;SDS011;590;48.772;8.846;2023-09-30T10:23:21;5.07;;;3.63;;
253;SDS011;590;48.772;8.846;2023-09-30T10:25:54;6.57;;;3.87;;
253;SDS011;590;48.772;8.846;2023-09-30T10:28:42;4.90;;;4.63;;
253;SDS011;590;48.772;8.846;2023-09-30T10:31:14;5.20;;;4.70;;
253;SDS011;590;48.772;8.846;2023-09-30T10:36:48;5.60;;;4.33;;
253;SDS011;590;48.772;8.846;2023-09-30T10:48:32;5.60;;;4.77;;
253;SDS011;590;48.772;8.846;2023-09-30T10:51:15;6.03;;;5.00;;
253;SDS011;590;48.772;8.846;2023-09-30T10:53:46;5.77;;;4.30;;
253;SDS011;590;48.772;8.846;2023-09-30T10:56:18;5.10;;;4.00;;
253;SDS011;590;48.772;8.846;2023-09-30T10:58:48;4.20;;;3.97;;
253;SDS011;590;48.772;8.846;2023-09-30T11:01:18;5.53;;;4.87;;
253;SDS011;590;48.772;8.846;2023-09-30T11:03:49;6.93;;;4.47;;
253;SDS011;590;48.772;8.846;2023-09-30T11:06:19;6.20;;;5.27;;
253;SDS011;590;48.772;8.846;2023-09-30T11:08:50;6.77;;;4.90;;
253;SDS011;590;48.772;8.846;2023-09-30T11:14:02;6.20;;;5.00;;
253;SDS011;590;48.772;8.846;2023-09-30T11:16:40;7.23;;;4.80;;
253;SDS011;590;48.772;8.846;2023-09-30T11:19:09;5.90;;;4.93;;
253;SDS011;590;48.772;8.846;2023-09-30T11:21:38;4.60;;;4.37;;
253;SDS011;590;48.772;8.846;2023-09-30T11:24:06;4.50;;;4.20;;
253;SDS011;590;48.772;8.846;2023-09-30T11:26:35;5.87;;;4.70;;
253;SDS011;590;48.772;8.846;2023-09-30T11:29:09;5.27;;;4.40;;
253;SDS011;590;48.772;8.846;2023-09-30T11:31:39;5.23;;;4.67;;
253;SDS011;590;48.772;8.846;2023-09-30T11:34:08;5.43;;;4.00;;
253;SDS011;590;48.772;8.846;2023-09-30T11:36:38;5.53;;;4.20;;
253;SDS011;590;48.772;8.846;2023-09-30T11:39:09;6.63;;;4.17;;
253;SDS011;590;48.772;8.846;2023-09-30T11:41:37;4.63;;;3.90;;
253;SDS011;590;48.772;8.846;2023-09-30T11:44:10;10.70;;;5.37;;
253;SDS011;590;48.772;8.846;2023-09-30T11:46:48;5.60;;;4.00;;
253;SDS011;590;48.772;8.846;2023-09-30T11:49:24;7.37;;;4.53;;
253;SDS011;590;48.772;8.846;2023-09-30T11:51:58;4.30;;;3.93;;
253;SDS011;590;48.772;8.846;2023-09-30T11:54:30;7.00;;;4.33;;
253;SDS011;590;48.772;8.846;2023-09-30T11:56:59;5.90;;;4.67;;
253;SDS011;590;48.772;8.846;2023-09-30T11:59:29;5.40;;;4.10;;
253;SDS011;590;48.772;8.846;2023-09-30T12:01:58;5.93;;;4.60;;
253;SDS011;590;48.772;8.846;2023-09-30T12:04:29;5.50;;;4.33;;
253;SDS011;590;48.772;8.846;2023-09-30T12:06:57;6.53;;;5.23;;
253;SDS011;590;48.772;8.846;2023-09-30T12:09:25;4.63;;;4.27;;
253;SDS011;590;48.772;8.846;2023-09-30T12:11:55;5.90;;;4.90;;
253;SDS011;590;48.772;8.846;2023-09-30T12:14:24;5.07;;;4.03;;
253;SDS011;590;48.772;8.846;2023-09-30T12:16:54;5.17;;;4.50;;
253;SDS011;590;48.772;8.846;2023-09-30T12:19:22;6.00;;;4.60;;
253;SDS011;590;48.772;8.846;2023-09-30T12:21:51;5.70;;;4.23;;
253;SDS011;590;48.772;8.846;2023-09-30T12:24:20;4.83;;;4.57;;
253;SDS011;590;48.772;8.846;2023-09-30T12:26:48;5.67;;;4.60;;
253;SDS011;590;48.772;8.846;2023-09-30T12:29:18;5.83;;;4.53;;
253;SDS011;590;48.772;8.846;2023-09-30T12:31:49;5.23;;;4.83;;
253;SDS011;590;48.772;8.846;2023-09-30T12:34:22;5.70;;;4.40;;
253;SDS011;590;48.772;8.846;2023-09-30T12:36:52;6.90;;;5.33;;
253;SDS011;590;48.772;8.846;2023-09-30T12:39:22;5.90;;;4.60;;
253;SDS011;590;48.772;8.846;2023-09-30T12:41:53;5.03;;;4.80;;
253;SDS011;590;48.772;8.846;2023-09-30T12:44:21;4.83;;;4.53;;
253;SDS011;590;48.772;8.846;2023-09-30T12:46:50;5.67;;;5.00;;
253;SDS011;590;48.772;8.846;2023-09-30T12:49:18;6.03;;;4.40;;
253;SDS011;590;48.772;8.846;2023-09-30T12:51:48;6.83;;;4.60;;
253;SDS011;590;48.772;8.846;2023-09-30T12:54:17;5.43;;;5.00;;
253;SDS011;590;48.772;8.846;2023-09-30T12:56:45;6.10;;;5.10;;
253;SDS011;590;48.772;8.846;2023-09-30T12:59:14;6.90;;;5.40;;
253;SDS011;590;48.772;8.846;2023-09-30T13:01:42;5.70;;;5.40;;
253;SDS011;590;48.772;8.846;2023-09-30T13:04:11;6.50;;;4.80;;
253;SDS011;590;48.772;8.846;2023-09-30T13:06:39;6.27;;;5.40;;
253;SDS011;590;48.772;8.846;2023-09-30T13:09:09;5.43;;;5.13;;
253;SDS011;590;48.772;8.846;2023-09-30T13:11:38;7.27;;;5.40;;
253;SDS011;590;48.772;8.846;2023-09-30T13:14:06;6.40;;;5.17;;
253;SDS011;590;48.772;8.846;2023-09-30T13:16:34;7.07;;;5.53;;
253;SDS011;590;48.772;8.846;2023-09-30T13:19:02;6.37;;;4.63;;
253;SDS011;590;48.772;8.846;2023-09-30T13:21:30;6.27;;;4.60;;
253;SDS011;590;48.772;8.846;2023-09-30T13:23:58;5.13;;;4.50;;
253;SDS011;590;48.772;8.846;2023-09-30T13:26:28;7.33;;;5.10;;
253;SDS011;590;48.772;8.846;2023-09-30T13:28:56;6.00;;;4.90;;
253;SDS011;590;48.772;8.846;2023-09-30T13:31:25;5.40;;;4.50;;
253;SDS011;590;48.772;8.846;2023-09-30T13:33:53;7.17;;;5.70;;
253;SDS011;590;48.772;8.846;2023-09-30T13:36:21;4.80;;;4.10;;
253;SDS011;590;48.772;8.846;2023-09-30T13:38:49;6.00;;;4.20;;
253;SDS011;590;48.772;8.846;2023-09-30T13:41:18;6.33;;;5.00;;
253;SDS011;590;48.772;8.846;2023-09-30T13:43:47;5.80;;;4.90;;
253;SDS011;590;48.772;8.846;2023-09-30T13:46:15;7.60;;;4.60;;
253;SDS011;590;48.772;8.846;2023-09-30T13:48:44;5.50;;;5.13;;
253;SDS011;590;48.772;8.846;2023-09-30T13:51:13;4.47;;;4.17;;
253;SDS011;590;48.772;8.846;2023-09-30T13:53:41;6.33;;;4.97;;
253;SDS011;590;48.772;8.846;2023-09-30T13:56:09;8.13;;;4.80;;
253;SDS011;590;48.772;8.846;2023-09-30T13:58:38;5.40;;;4.40;;
253;SDS011;590;48.772;8.846;2023-09-30T14:01:07;6.37;;;4.63;;
253;SDS011;590;48.772;8.846;2023-09-30T14:03:37;5.30;;;4.97;;
253;SDS011;590;48.772;8.846;2023-09-30T14:06:09;7.77;;;5.27;;
253;SDS011;590;48.772;8.846;2023-09-30T14:08:38;5.20;;;4.60;;
253;SDS011;590;48.772;8.846;2023-09-30T14:11:09;5.10;;;4.40;;
253;SDS011;590;48.772;8.846;2023-09-30T14:13:37;6.47;;;5.13;;
253;SDS011;590;48.772;8.846;2023-09-30T14:16:07;5.90;;;5.13;;
253;SDS011;590;48.772;8.846;2023-09-30T14:18:36;4.73;;;4.20;;
253;SDS011;590;48.772;8.846;2023-09-30T14:21:05;6.17;;;5.40;;
253;SDS011;590;48.772;8.846;2023-09-30T14:23:33;5.63;;;5.00;;
253;SDS011;590;48.772;8.846;2023-09-30T14:26:05;5.43;;;5.00;;
253;SDS011;590;48.772;8.846;2023-09-30T14:28:37;6.47;;;4.90;;
253;SDS011;590;48.772;8.846;2023-09-30T14:31:05;5.27;;;4.80;;
253;SDS011;590;48.772;8.846;2023-09-30T14:33:35;6.35;;;4.75;;
253;SDS011;590;48.772;8.846;2023-09-30T14:36:03;6.30;;;5.20;;
253;SDS011;590;48.772;8.846;2023-09-30T14:38:33;5.80;;;4.97;;
253;SDS011;590;48.772;8.846;2023-09-30T14:41:01;7.53;;;4.93;;
253;SDS011;590;48.772;8.846;2023-09-30T14:43:33;4.13;;;3.90;;
253;SDS011;590;48.772;8.846;2023-09-30T14:46:01;6.07;;;4.67;;
253;SDS011;590;48.772;8.846;2023-09-30T14:48:31;5.07;;;4.37;;
253;SDS011;590;48.772;8.846;2023-09-30T14:50:59;6.07;;;4.73;;
253;SDS011;590;48.772;8.846;2023-09-30T14:53:29;6.87;;;5.30;;
253;SDS011;590;48.772;8.846;2023-09-30T14:55:57;4.67;;;4.37;;
253;SDS011;590;48.772;8.846;2023-09-30T14:58:25;5.70;;;4.83;;
253;SDS011;590;48.772;8.846;2023-09-30T15:00:53;6.47;;;5.23;;
253;SDS011;590;48.772;8.846;2023-09-30T15:03:21;6.43;;;4.13;;
253;SDS011;590;48.772;8.846;2023-09-30T15:05:57;6.30;;;4.83;;
253;SDS011;590;48.772;8.846;2023-09-30T15:08:28;5.47;;;4.87;;
253;SDS011;590;48.772;8.846;2023-09-30T15:10:56;5.90;;;5.23;;
253;SDS011;590;48.772;8.846;2023-09-30T15:13:25;5.07;;;4.80;;
253;SDS011;590;48.772;8.846;2023-09-30T15:15:54;5.83;;;4.97;;
253;SDS011;590;48.772;8.846;2023-09-30T15:18:23;5.33;;;4.70;;
253;SDS011;590;48.772;8.846;2023-09-30T15:20:51;5.30;;;4.40;;
253;SDS011;590;48.772;8.846;2023-09-30T15:23:20;5.23;;;4.87;;
253;SDS011;590;48.772;8.846;2023-09-30T15:25:48;7.83;;;4.97;;
253;SDS011;590;48.772;8.846;2023-09-30T15:28:16;4.80;;;4.50;;
253;SDS011;590;48.772;8.846;2023-09-30T15:30:44;5.60;;;4.47;;
253;SDS011;590;48.772;8.846;2023-09-30T15:33:12;5.50;;;4.60;;
253;SDS011;590;48.772;8.846;2023-09-30T15:35:40;5.90;;;5.13;;
253;SDS011;590;48.772;8.846;2023-09-30T15:38:08;6.10;;;4.60;;
253;SDS011;590;48.772;8.846;2023-09-30T15:40:49;6.63;;;5.67;;
253;SDS011;590;48.772;8.846;2023-09-30T15:43:19;4.60;;;4.20;;
253;SDS011;590;48.772;8.846;2023-09-30T15:45:49;6.00;;;4.90;;
253;SDS011;590;48.772;8.846;2023-09-30T15:48:17;6.97;;;5.13;;
253;SDS011;590;48.772;8.846;2023-09-30T15:50:46;5.67;;;5.40;;
253;SDS011;590;48.772;8.846;2023-09-30T15:53:14;4.90;;;4.47;;
253;SDS011;590;48.772;8.846;2023-09-30T15:55:44;6.60;;;5.13;;
253;SDS011;590;48.772;8.846;2023-09-30T15:58:12;5.23;;;4.60;;
253;SDS011;590;48.772;8.846;2023-09-30T16:00:41;5.33;;;5.03;;
253;SDS011;590;48.772;8.846;2023-09-30T16:03:10;5.13;;;4.40;;
253;SDS011;590;48.772;8.846;2023-09-30T16:05:38;6.23;;;5.37;;
253;SDS011;590;48.772;8.846;2023-09-30T16:08:07;7.03;;;5.33;;
253;SDS011;590;48.772;8.846;2023-09-30T16:10:37;7.27;;;5.30;;
253;SDS011;590;48.772;8.846;2023-09-30T16:13:06;6.23;;;5.20;;
253;SDS011;590;48.772;8.846;2023-09-30T16:15:37;6.47;;;4.70;;